sensor_id;sensor_type;location;lat;lon;timestamp;P1;durP1;ratioP1;P2;durP2;ratioP2
14526;SDS011;7350;51.208;4.238;2023-02-15T00:00:29;25.98;;;23.48;;
14526;SDS011;7350;51.208;4.238;2023-02-15T00:02:57;26.00;;;23.50;;
14526;SDS011;7350;51.208;4.238;2023-02-15T00:05:24;24.92;;;22.52;;
14526;SDS011;7350;51.208;4.238;2023-02-15T00:07:51;24.33;;;21.98;;
14526;SDS011;7350;51.208;4.238;2023-02-15T00:10:18;25.05;;;22.55;;
14526;SDS011;7350;51.208;4.238;2023-02-15T00:12:45;23.75;;;21.55;;
14526;SDS011;7350;51.208;4.238;2023-02-15T00:15:12;24.42;;;21.88;;
14526;SDS011;7350;51.208;4.238;2023-02-15T00:17:39;25.65;;;23.05;;
14526;SDS011;7350;51.208;4.238;2023-02-15T00:20:08;24.25;;;21.95;;
14526;SDS011;7350;51.208;4.238;2023-02-15T00:22:35;23.55;;;21.35;;
14526;SDS011;7350;51.208;4.238;2023-02-15T00:25:03;24.23;;;21.92;;
14526;SDS011;7350;51.208;4.238;2023-02-15T00:27:31;24.27;;;21.90;;
14526;SDS011;7350;51.208;4.238;2023-02-15T00:29:59;24.23;;;21.83;;
14526;SDS011;7350;51.208;4.238;2023-02-15T00:32:26;23.35;;;21.15;;
14526;SDS011;7350;51.208;4.238;2023-02-15T00:34:53;23.52;;;21.13;;
14526;SDS011;7350;51.208;4.238;2023-02-15T00:37:21;23.80;;;21.25;;
14526;SDS011;7350;51.208;4.238;2023-02-15T00:39:48;23.55;;;21.25;;
14526;SDS011;7350;51.208;4.238;2023-02-15T00:42:15;22.88;;;20.65;;
14526;SDS011;7350;51.208;4.238;2023-02-15T00:44:42;22.75;;;20.52;;
14526;SDS011;7350;51.208;4.238;2023-02-15T00:47:09;21.50;;;19.40;;
14526;SDS011;7350;51.208;4.238;2023-02-15T00:49:36;20.92;;;18.92;;
14526;SDS011;7350;51.208;4.238;2023-02-15T00:52:03;23.10;;;20.80;;
14526;SDS011;7350;51.208;4.238;2023-02-15T00:54:31;22.10;;;19.98;;
14526;SDS011;7350;51.208;4.238;2023-02-15T00:56:59;22.40;;;20.15;;
14526;SDS011;7350;51.208;4.238;2023-02-15T00:59:26;22.90;;;20.60;;
14526;SDS011;7350;51.208;4.238;2023-02-15T01:01:53;22.05;;;19.85;;
14526;SDS011;7350;51.208;4.238;2023-02-15T01:04:20;22.23;;;20.00;;
14526;SDS011;7350;51.208;4.238;2023-02-15T01:06:47;21.70;;;19.60;;
14526;SDS011;7350;51.208;4.238;2023-02-15T01:09:14;22.30;;;20.10;;
14526;SDS011;7350;51.208;4.238;2023-02-15T01:11:42;21.10;;;19.10;;
14526;SDS011;7350;51.208;4.238;2023-02-15T01:14:09;21.95;;;19.85;;
14526;SDS011;7350;51.208;4.238;2023-02-15T01:16:38;21.25;;;19.17;;
14526;SDS011;7350;51.208;4.238;2023-02-15T01:19:05;22.02;;;19.73;;
14526;SDS011;7350;51.208;4.238;2023-02-15T01:21:32;21.35;;;19.25;;
14526;SDS011;7350;51.208;4.238;2023-02-15T01:23:59;20.83;;;18.83;;
14526;SDS011;7350;51.208;4.238;2023-02-15T01:26:26;21.88;;;19.75;;
14526;SDS011;7350;51.208;4.238;2023-02-15T01:28:55;22.15;;;19.95;;
14526;SDS011;7350;51.208;4.238;2023-02-15T01:31:22;20.90;;;18.80;;
14526;SDS011;7350;51.208;4.238;2023-02-15T01:33:49;22.52;;;20.30;;
14526;SDS011;7350;51.208;4.238;2023-02-15T01:36:16;20.75;;;18.52;;
14526;SDS011;7350;51.208;4.238;2023-02-15T01:38:43;21.20;;;19.08;;
14526;SDS011;7350;51.208;4.238;2023-02-15T01:41:10;21.45;;;19.35;;
14526;SDS011;7350;51.208;4.238;2023-02-15T01:43:49;20.88;;;18.75;;
14526;SDS011;7350;51.208;4.238;2023-02-15T01:46:20;21.48;;;19.33;;
14526;SDS011;7350;51.208;4.238;2023-02-15T01:48:52;19.83;;;17.83;;
14526;SDS011;7350;51.208;4.238;2023-02-15T01:51:22;21.17;;;19.00;;
14526;SDS011;7350;51.208;4.238;2023-02-15T01:53:53;20.77;;;18.85;;
14526;SDS011;7350;51.208;4.238;2023-02-15T01:56:26;20.20;;;18.20;;
14526;SDS011;7350;51.208;4.238;2023-02-15T01:58:56;20.95;;;18.75;;
14526;SDS011;7350;51.208;4.238;2023-02-15T02:01:27;19.75;;;17.83;;
14526;SDS011;7350;51.208;4.238;2023-02-15T02:03:56;20.33;;;18.25;;
14526;SDS011;7350;51.208;4.238;2023-02-15T02:06:28;20.80;;;18.63;;
14526;SDS011;7350;51.208;4.238;2023-02-15T02:08:56;20.13;;;18.20;;
14526;SDS011;7350;51.208;4.238;2023-02-15T02:11:24;20.25;;;18.17;;
14526;SDS011;7350;51.208;4.238;2023-02-15T02:13:51;19.33;;;17.42;;
14526;SDS011;7350;51.208;4.238;2023-02-15T02:16:21;20.02;;;18.02;;
14526;SDS011;7350;51.208;4.238;2023-02-15T02:18:59;20.27;;;18.27;;
14526;SDS011;7350;51.208;4.238;2023-02-15T02:21:57;20.10;;;17.95;;
14526;SDS011;7350;51.208;4.238;2023-02-15T02:24:51;20.08;;;18.13;;
14526;SDS011;7350;51.208;4.238;2023-02-15T02:27:29;19.73;;;17.83;;
14526;SDS011;7350;51.208;4.238;2023-02-15T02:30:18;20.13;;;18.02;;
14526;SDS011;7350;51.208;4.238;2023-02-15T02:33:38;19.40;;;17.50;;
14526;SDS011;7350;51.208;4.238;2023-02-15T02:36:15;18.75;;;16.85;;
14526;SDS011;7350;51.208;4.238;2023-02-15T02:39:00;18.60;;;16.90;;
14526;SDS011;7350;51.208;4.238;2023-02-15T02:41:37;19.20;;;17.35;;
14526;SDS011;7350;51.208;4.238;2023-02-15T02:44:12;19.98;;;17.98;;
14526;SDS011;7350;51.208;4.238;2023-02-15T02:46:45;19.63;;;17.67;;
14526;SDS011;7350;51.208;4.238;2023-02-15T02:49:20;19.95;;;18.00;;
14526;SDS011;7350;51.208;4.238;2023-02-15T02:51:57;18.33;;;16.52;;
14526;SDS011;7350;51.208;4.238;2023-02-15T02:54:25;18.60;;;16.67;;
14526;SDS011;7350;51.208;4.238;2023-02-15T02:56:53;19.10;;;17.35;;
14526;SDS011;7350;51.208;4.238;2023-02-15T02:59:23;19.98;;;17.77;;
14526;SDS011;7350;51.208;4.238;2023-02-15T03:01:57;19.95;;;17.95;;
14526;SDS011;7350;51.208;4.238;2023-02-15T03:04:30;18.40;;;16.30;;
14526;SDS011;7350;51.208;4.238;2023-02-15T03:07:01;17.27;;;15.57;;
14526;SDS011;7350;51.208;4.238;2023-02-15T03:09:32;18.85;;;16.95;;
14526;SDS011;7350;51.208;4.238;2023-02-15T03:12:07;17.45;;;15.68;;
14526;SDS011;7350;51.208;4.238;2023-02-15T03:14:35;17.25;;;15.63;;
14526;SDS011;7350;51.208;4.238;2023-02-15T03:17:02;17.98;;;16.17;;
14526;SDS011;7350;51.208;4.238;2023-02-15T03:19:33;19.35;;;17.38;;
14526;SDS011;7350;51.208;4.238;2023-02-15T03:22:03;18.90;;;16.55;;
14526;SDS011;7350;51.208;4.238;2023-02-15T03:24:34;18.67;;;16.88;;
14526;SDS011;7350;51.208;4.238;2023-02-15T03:27:05;18.00;;;16.25;;
14526;SDS011;7350;51.208;4.238;2023-02-15T03:29:35;18.10;;;16.35;;
14526;SDS011;7350;51.208;4.238;2023-02-15T03:32:05;18.73;;;16.88;;
14526;SDS011;7350;51.208;4.238;2023-02-15T03:34:37;19.63;;;17.25;;
14526;SDS011;7350;51.208;4.238;2023-02-15T03:37:05;19.95;;;17.95;;
14526;SDS011;7350;51.208;4.238;2023-02-15T03:39:39;19.13;;;17.27;;
14526;SDS011;7350;51.208;4.238;2023-02-15T03:42:12;19.65;;;17.65;;
14526;SDS011;7350;51.208;4.238;2023-02-15T03:44:46;18.98;;;17.08;;
14526;SDS011;7350;51.208;4.238;2023-02-15T03:47:19;18.65;;;16.75;;
14526;SDS011;7350;51.208;4.238;2023-02-15T03:49:51;20.38;;;18.38;;
14526;SDS011;7350;51.208;4.238;2023-02-15T03:52:23;19.45;;;17.55;;
14526;SDS011;7350;51.208;4.238;2023-02-15T03:54:52;18.92;;;17.13;;
14526;SDS011;7350;51.208;4.238;2023-02-15T03:57:20;19.08;;;17.15;;
14526;SDS011;7350;51.208;4.238;2023-02-15T04:00:09;19.05;;;17.20;;
14526;SDS011;7350;51.208;4.238;2023-02-15T04:03:05;18.17;;;16.42;;
14526;SDS011;7350;51.208;4.238;2023-02-15T04:05:49;18.90;;;17.15;;
14526;SDS011;7350;51.208;4.238;2023-02-15T04:08:16;18.15;;;16.35;;
14526;SDS011;7350;51.208;4.238;2023-02-15T04:10:43;19.20;;;17.30;;
14526;SDS011;7350;51.208;4.238;2023-02-15T04:13:20;18.70;;;16.77;;
14526;SDS011;7350;51.208;4.238;2023-02-15T04:15:47;18.55;;;16.65;;
14526;SDS011;7350;51.208;4.238;2023-02-15T04:18:29;18.48;;;16.58;;
14526;SDS011;7350;51.208;4.238;2023-02-15T04:21:15;18.10;;;16.30;;
14526;SDS011;7350;51.208;4.238;2023-02-15T04:23:59;19.08;;;17.27;;
14526;SDS011;7350;51.208;4.238;2023-02-15T04:26:44;18.60;;;16.85;;
14526;SDS011;7350;51.208;4.238;2023-02-15T04:29:12;18.73;;;17.02;;
14526;SDS011;7350;51.208;4.238;2023-02-15T04:31:39;19.15;;;17.25;;
14526;SDS011;7350;51.208;4.238;2023-02-15T04:34:07;20.42;;;18.33;;
14526;SDS011;7350;51.208;4.238;2023-02-15T04:36:36;18.73;;;16.92;;
14526;SDS011;7350;51.208;4.238;2023-02-15T04:39:03;18.95;;;17.17;;
14526;SDS011;7350;51.208;4.238;2023-02-15T04:41:30;19.42;;;17.52;;
14526;SDS011;7350;51.208;4.238;2023-02-15T04:43:58;19.48;;;17.60;;
14526;SDS011;7350;51.208;4.238;2023-02-15T04:46:25;19.02;;;17.23;;
14526;SDS011;7350;51.208;4.238;2023-02-15T04:48:53;19.42;;;17.63;;
14526;SDS011;7350;51.208;4.238;2023-02-15T04:51:20;19.17;;;17.38;;
14526;SDS011;7350;51.208;4.238;2023-02-15T04:53:49;17.65;;;16.02;;
14526;SDS011;7350;51.208;4.238;2023-02-15T04:56:17;18.38;;;16.60;;
14526;SDS011;7350;51.208;4.238;2023-02-15T04:58:44;16.33;;;14.73;;
14526;SDS011;7350;51.208;4.238;2023-02-15T05:01:11;17.50;;;15.90;;
14526;SDS011;7350;51.208;4.238;2023-02-15T05:03:39;17.05;;;15.45;;
14526;SDS011;7350;51.208;4.238;2023-02-15T05:06:06;16.75;;;15.15;;
14526;SDS011;7350;51.208;4.238;2023-02-15T05:08:33;17.60;;;15.90;;
14526;SDS011;7350;51.208;4.238;2023-02-15T05:11:02;16.88;;;15.18;;
14526;SDS011;7350;51.208;4.238;2023-02-15T05:13:28;16.90;;;15.20;;
14526;SDS011;7350;51.208;4.238;2023-02-15T05:15:55;16.05;;;14.50;;
14526;SDS011;7350;51.208;4.238;2023-02-15T05:18:22;15.80;;;14.20;;
14526;SDS011;7350;51.208;4.238;2023-02-15T05:20:49;16.27;;;14.63;;
14526;SDS011;7350;51.208;4.238;2023-02-15T05:23:16;15.98;;;14.27;;
14526;SDS011;7350;51.208;4.238;2023-02-15T05:25:46;15.65;;;14.00;;
14526;SDS011;7350;51.208;4.238;2023-02-15T05:28:32;15.98;;;14.27;;
14526;SDS011;7350;51.208;4.238;2023-02-15T05:31:01;15.90;;;13.02;;
14526;SDS011;7350;51.208;4.238;2023-02-15T05:33:31;15.48;;;13.88;;
14526;SDS011;7350;51.208;4.238;2023-02-15T05:35:59;17.00;;;14.23;;
14526;SDS011;7350;51.208;4.238;2023-02-15T05:38:26;15.70;;;13.93;;
14526;SDS011;7350;51.208;4.238;2023-02-15T05:40:53;16.65;;;14.07;;
14526;SDS011;7350;51.208;4.238;2023-02-15T05:43:20;14.32;;;12.93;;
14526;SDS011;7350;51.208;4.238;2023-02-15T05:45:49;13.73;;;12.40;;
14526;SDS011;7350;51.208;4.238;2023-02-15T05:48:18;15.20;;;13.70;;
14526;SDS011;7350;51.208;4.238;2023-02-15T05:50:45;15.45;;;13.48;;
14526;SDS011;7350;51.208;4.238;2023-02-15T05:53:13;14.82;;;13.32;;
14526;SDS011;7350;51.208;4.238;2023-02-15T05:55:40;14.80;;;13.35;;
14526;SDS011;7350;51.208;4.238;2023-02-15T05:58:07;13.93;;;12.52;;
14526;SDS011;7350;51.208;4.238;2023-02-15T06:00:34;15.50;;;12.95;;
14526;SDS011;7350;51.208;4.238;2023-02-15T06:03:03;14.60;;;13.05;;
14526;SDS011;7350;51.208;4.238;2023-02-15T06:05:29;13.90;;;12.60;;
14526;SDS011;7350;51.208;4.238;2023-02-15T06:07:56;14.05;;;12.65;;
14526;SDS011;7350;51.208;4.238;2023-02-15T06:10:23;14.73;;;13.23;;
14526;SDS011;7350;51.208;4.238;2023-02-15T06:12:50;13.77;;;12.57;;
14526;SDS011;7350;51.208;4.238;2023-02-15T06:15:17;16.08;;;14.57;;
14526;SDS011;7350;51.208;4.238;2023-02-15T06:17:44;14.13;;;12.70;;
14526;SDS011;7350;51.208;4.238;2023-02-15T06:20:13;14.40;;;13.10;;
14526;SDS011;7350;51.208;4.238;2023-02-15T06:22:40;14.82;;;13.38;;
14526;SDS011;7350;51.208;4.238;2023-02-15T06:25:07;15.80;;;14.40;;
14526;SDS011;7350;51.208;4.238;2023-02-15T06:27:36;16.48;;;14.10;;
14526;SDS011;7350;51.208;4.238;2023-02-15T06:30:04;14.73;;;13.40;;
14526;SDS011;7350;51.208;4.238;2023-02-15T06:32:32;15.43;;;14.02;;
14526;SDS011;7350;51.208;4.238;2023-02-15T06:34:59;14.55;;;13.18;;
14526;SDS011;7350;51.208;4.238;2023-02-15T06:37:27;14.25;;;12.90;;
14526;SDS011;7350;51.208;4.238;2023-02-15T06:39:54;15.07;;;13.60;;
14526;SDS011;7350;51.208;4.238;2023-02-15T06:42:21;15.00;;;13.50;;
14526;SDS011;7350;51.208;4.238;2023-02-15T06:44:48;15.45;;;13.93;;
14526;SDS011;7350;51.208;4.238;2023-02-15T06:47:15;15.50;;;14.00;;
14526;SDS011;7350;51.208;4.238;2023-02-15T06:49:42;14.98;;;13.50;;
14526;SDS011;7350;51.208;4.238;2023-02-15T06:52:09;15.23;;;13.65;;
14526;SDS011;7350;51.208;4.238;2023-02-15T06:54:37;14.77;;;13.38;;
14526;SDS011;7350;51.208;4.238;2023-02-15T06:57:04;14.55;;;13.05;;
14526;SDS011;7350;51.208;4.238;2023-02-15T06:59:31;15.27;;;13.82;;
14526;SDS011;7350;51.208;4.238;2023-02-15T07:01:58;15.45;;;13.88;;
14526;SDS011;7350;51.208;4.238;2023-02-15T07:04:25;14.75;;;13.35;;
14526;SDS011;7350;51.208;4.238;2023-02-15T07:06:55;15.77;;;14.27;;
14526;SDS011;7350;51.208;4.238;2023-02-15T07:09:22;16.75;;;15.05;;
14526;SDS011;7350;51.208;4.238;2023-02-15T07:11:50;15.60;;;14.00;;
14526;SDS011;7350;51.208;4.238;2023-02-15T07:14:35;15.50;;;14.05;;
14526;SDS011;7350;51.208;4.238;2023-02-15T07:17:02;16.50;;;14.27;;
14526;SDS011;7350;51.208;4.238;2023-02-15T07:19:29;15.48;;;14.00;;
14526;SDS011;7350;51.208;4.238;2023-02-15T07:21:56;14.60;;;13.10;;
14526;SDS011;7350;51.208;4.238;2023-02-15T07:24:23;15.93;;;14.15;;
14526;SDS011;7350;51.208;4.238;2023-02-15T07:26:51;16.50;;;14.90;;
14526;SDS011;7350;51.208;4.238;2023-02-15T07:29:18;16.40;;;14.70;;
14526;SDS011;7350;51.208;4.238;2023-02-15T07:31:45;14.90;;;13.40;;
14526;SDS011;7350;51.208;4.238;2023-02-15T07:34:12;15.40;;;13.80;;
14526;SDS011;7350;51.208;4.238;2023-02-15T07:36:39;15.45;;;14.00;;
14526;SDS011;7350;51.208;4.238;2023-02-15T07:39:06;14.65;;;13.25;;
14526;SDS011;7350;51.208;4.238;2023-02-15T07:41:33;15.85;;;14.25;;
14526;SDS011;7350;51.208;4.238;2023-02-15T07:44:02;14.60;;;13.23;;
14526;SDS011;7350;51.208;4.238;2023-02-15T07:46:29;15.60;;;13.77;;
14526;SDS011;7350;51.208;4.238;2023-02-15T07:48:56;15.77;;;14.27;;
14526;SDS011;7350;51.208;4.238;2023-02-15T07:51:23;16.05;;;14.43;;
14526;SDS011;7350;51.208;4.238;2023-02-15T07:53:50;16.50;;;14.80;;
14526;SDS011;7350;51.208;4.238;2023-02-15T07:56:17;16.02;;;14.48;;
14526;SDS011;7350;51.208;4.238;2023-02-15T07:58:44;15.02;;;13.52;;
14526;SDS011;7350;51.208;4.238;2023-02-15T08:01:19;15.85;;;14.32;;
14526;SDS011;7350;51.208;4.238;2023-02-15T08:03:47;15.10;;;13.70;;
14526;SDS011;7350;51.208;4.238;2023-02-15T08:06:14;16.15;;;14.55;;
14526;SDS011;7350;51.208;4.238;2023-02-15T08:08:41;16.73;;;15.13;;
14526;SDS011;7350;51.208;4.238;2023-02-15T08:11:14;15.90;;;14.38;;
14526;SDS011;7350;51.208;4.238;2023-02-15T08:13:54;16.25;;;14.73;;
14526;SDS011;7350;51.208;4.238;2023-02-15T08:16:26;16.48;;;14.88;;
14526;SDS011;7350;51.208;4.238;2023-02-15T08:18:55;15.45;;;13.95;;
14526;SDS011;7350;51.208;4.238;2023-02-15T08:21:24;15.98;;;14.48;;
14526;SDS011;7350;51.208;4.238;2023-02-15T08:23:53;16.30;;;14.77;;
14526;SDS011;7350;51.208;4.238;2023-02-15T08:26:21;15.90;;;14.40;;
14526;SDS011;7350;51.208;4.238;2023-02-15T08:28:48;16.50;;;14.82;;
14526;SDS011;7350;51.208;4.238;2023-02-15T08:31:16;16.63;;;15.02;;
14526;SDS011;7350;51.208;4.238;2023-02-15T08:33:45;15.88;;;14.38;;
14526;SDS011;7350;51.208;4.238;2023-02-15T08:36:14;16.50;;;14.90;;
14526;SDS011;7350;51.208;4.238;2023-02-15T08:38:42;16.13;;;14.45;;
14526;SDS011;7350;51.208;4.238;2023-02-15T08:41:13;16.92;;;15.20;;
14526;SDS011;7350;51.208;4.238;2023-02-15T08:43:42;17.30;;;15.63;;
14526;SDS011;7350;51.208;4.238;2023-02-15T08:46:10;16.25;;;14.65;;
14526;SDS011;7350;51.208;4.238;2023-02-15T08:48:37;16.33;;;14.82;;
14526;SDS011;7350;51.208;4.238;2023-02-15T08:51:07;16.60;;;14.98;;
14526;SDS011;7350;51.208;4.238;2023-02-15T08:53:37;15.70;;;13.85;;
14526;SDS011;7350;51.208;4.238;2023-02-15T08:56:04;16.45;;;14.85;;
14526;SDS011;7350;51.208;4.238;2023-02-15T08:58:32;16.55;;;14.85;;
14526;SDS011;7350;51.208;4.238;2023-02-15T09:01:00;16.25;;;14.73;;
14526;SDS011;7350;51.208;4.238;2023-02-15T09:03:33;17.45;;;15.75;;
14526;SDS011;7350;51.208;4.238;2023-02-15T09:06:00;16.65;;;15.15;;
14526;SDS011;7350;51.208;4.238;2023-02-15T09:08:29;16.70;;;15.02;;
14526;SDS011;7350;51.208;4.238;2023-02-15T09:11:04;16.48;;;14.88;;
14526;SDS011;7350;51.208;4.238;2023-02-15T09:13:32;16.27;;;14.77;;
14526;SDS011;7350;51.208;4.238;2023-02-15T09:16:00;16.67;;;15.05;;
14526;SDS011;7350;51.208;4.238;2023-02-15T09:18:29;16.10;;;14.52;;
14526;SDS011;7350;51.208;4.238;2023-02-15T09:20:56;16.05;;;14.45;;
14526;SDS011;7350;51.208;4.238;2023-02-15T09:23:31;15.93;;;14.50;;
14526;SDS011;7350;51.208;4.238;2023-02-15T09:26:01;15.27;;;13.80;;
14526;SDS011;7350;51.208;4.238;2023-02-15T09:28:29;15.70;;;14.30;;
14526;SDS011;7350;51.208;4.238;2023-02-15T09:30:57;16.73;;;15.13;;
14526;SDS011;7350;51.208;4.238;2023-02-15T09:33:32;14.93;;;13.52;;
14526;SDS011;7350;51.208;4.238;2023-02-15T09:35:59;16.08;;;14.52;;
14526;SDS011;7350;51.208;4.238;2023-02-15T09:38:27;15.65;;;14.18;;
14526;SDS011;7350;51.208;4.238;2023-02-15T09:40:56;16.02;;;14.45;;
14526;SDS011;7350;51.208;4.238;2023-02-15T09:43:35;16.23;;;14.52;;
14526;SDS011;7350;51.208;4.238;2023-02-15T09:46:16;15.05;;;13.65;;
14526;SDS011;7350;51.208;4.238;2023-02-15T09:48:55;14.93;;;13.50;;
14526;SDS011;7350;51.208;4.238;2023-02-15T09:51:35;14.85;;;13.50;;
14526;SDS011;7350;51.208;4.238;2023-02-15T09:54:30;15.25;;;13.75;;
14526;SDS011;7350;51.208;4.238;2023-02-15T09:57:10;15.73;;;14.23;;
14526;SDS011;7350;51.208;4.238;2023-02-15T09:59:47;15.80;;;14.30;;
14526;SDS011;7350;51.208;4.238;2023-02-15T10:02:26;14.85;;;13.43;;
14526;SDS011;7350;51.208;4.238;2023-02-15T10:05:06;14.57;;;13.07;;
14526;SDS011;7350;51.208;4.238;2023-02-15T10:07:52;15.43;;;13.88;;
14526;SDS011;7350;51.208;4.238;2023-02-15T10:10:40;15.15;;;13.65;;
14526;SDS011;7350;51.208;4.238;2023-02-15T10:13:18;14.98;;;13.48;;
14526;SDS011;7350;51.208;4.238;2023-02-15T10:15:59;14.60;;;13.13;;
14526;SDS011;7350;51.208;4.238;2023-02-15T10:18:38;14.75;;;13.30;;
14526;SDS011;7350;51.208;4.238;2023-02-15T10:21:23;14.57;;;13.18;;
14526;SDS011;7350;51.208;4.238;2023-02-15T10:24:04;15.35;;;13.75;;
14526;SDS011;7350;51.208;4.238;2023-02-15T10:26:50;14.27;;;12.98;;
14526;SDS011;7350;51.208;4.238;2023-02-15T10:29:27;15.00;;;13.60;;
14526;SDS011;7350;51.208;4.238;2023-02-15T10:32:03;14.40;;;13.00;;
14526;SDS011;7350;51.208;4.238;2023-02-15T10:34:43;14.77;;;13.38;;
14526;SDS011;7350;51.208;4.238;2023-02-15T10:40:12;15.07;;;13.63;;
14526;SDS011;7350;51.208;4.238;2023-02-15T10:42:49;13.43;;;12.15;;
14526;SDS011;7350;51.208;4.238;2023-02-15T10:45:34;13.63;;;12.40;;
14526;SDS011;7350;51.208;4.238;2023-02-15T10:48:15;13.68;;;12.38;;
14526;SDS011;7350;51.208;4.238;2023-02-15T10:50:49;13.73;;;12.40;;
14526;SDS011;7350;51.208;4.238;2023-02-15T10:56:17;14.65;;;13.07;;
14526;SDS011;7350;51.208;4.238;2023-02-15T11:01:52;13.88;;;12.57;;
14526;SDS011;7350;51.208;4.238;2023-02-15T11:04:32;13.48;;;12.07;;
14526;SDS011;7350;51.208;4.238;2023-02-15T11:07:14;14.07;;;12.60;;
14526;SDS011;7350;51.208;4.238;2023-02-15T11:09:45;13.50;;;12.20;;
14526;SDS011;7350;51.208;4.238;2023-02-15T11:12:15;14.15;;;12.75;;
14526;SDS011;7350;51.208;4.238;2023-02-15T11:14:46;13.60;;;12.20;;
14526;SDS011;7350;51.208;4.238;2023-02-15T11:17:21;13.13;;;11.82;;
14526;SDS011;7350;51.208;4.238;2023-02-15T11:19:53;12.90;;;11.60;;
14526;SDS011;7350;51.208;4.238;2023-02-15T11:22:26;13.18;;;11.20;;
14526;SDS011;7350;51.208;4.238;2023-02-15T11:24:54;14.70;;;12.88;;
14526;SDS011;7350;51.208;4.238;2023-02-15T11:27:23;16.70;;;15.05;;
14526;SDS011;7350;51.208;4.238;2023-02-15T11:29:54;18.25;;;16.33;;
14526;SDS011;7350;51.208;4.238;2023-02-15T11:32:28;19.38;;;17.35;;
14526;SDS011;7350;51.208;4.238;2023-02-15T11:34:58;19.80;;;17.70;;
14526;SDS011;7350;51.208;4.238;2023-02-15T11:37:31;20.20;;;17.45;;
14526;SDS011;7350;51.208;4.238;2023-02-15T11:40:03;22.95;;;16.65;;
14526;SDS011;7350;51.208;4.238;2023-02-15T11:42:43;19.33;;;17.33;;
14526;SDS011;7350;51.208;4.238;2023-02-15T11:45:18;21.38;;;17.02;;
14526;SDS011;7350;51.208;4.238;2023-02-15T11:47:51;20.80;;;17.42;;
14526;SDS011;7350;51.208;4.238;2023-02-15T11:50:20;17.88;;;15.68;;
14526;SDS011;7350;51.208;4.238;2023-02-15T11:52:49;20.55;;;16.52;;
14526;SDS011;7350;51.208;4.238;2023-02-15T11:55:19;18.08;;;15.75;;
14526;SDS011;7350;51.208;4.238;2023-02-15T11:57:49;18.63;;;16.73;;
14526;SDS011;7350;51.208;4.238;2023-02-15T12:02:57;17.20;;;15.20;;
14526;SDS011;7350;51.208;4.238;2023-02-15T12:05:25;23.30;;;16.17;;
14526;SDS011;7350;51.208;4.238;2023-02-15T12:07:52;20.42;;;15.40;;
14526;SDS011;7350;51.208;4.238;2023-02-15T12:10:23;19.55;;;15.93;;
14526;SDS011;7350;51.208;4.238;2023-02-15T12:13:07;17.67;;;15.75;;
14526;SDS011;7350;51.208;4.238;2023-02-15T12:15:36;17.95;;;15.15;;
14526;SDS011;7350;51.208;4.238;2023-02-15T12:18:05;16.60;;;14.40;;
14526;SDS011;7350;51.208;4.238;2023-02-15T12:20:50;16.35;;;14.55;;
14526;SDS011;7350;51.208;4.238;2023-02-15T12:23:17;20.60;;;15.45;;
14526;SDS011;7350;51.208;4.238;2023-02-15T12:25:49;16.65;;;13.88;;
14526;SDS011;7350;51.208;4.238;2023-02-15T12:28:23;16.63;;;14.80;;
14526;SDS011;7350;51.208;4.238;2023-02-15T12:30:53;18.10;;;14.23;;
14526;SDS011;7350;51.208;4.238;2023-02-15T12:33:25;17.13;;;14.02;;
14526;SDS011;7350;51.208;4.238;2023-02-15T12:35:57;17.88;;;13.88;;
14526;SDS011;7350;51.208;4.238;2023-02-15T12:38:27;15.40;;;13.50;;
14526;SDS011;7350;51.208;4.238;2023-02-15T12:40:59;14.00;;;12.55;;
14526;SDS011;7350;51.208;4.238;2023-02-15T12:43:29;14.77;;;12.43;;
14526;SDS011;7350;51.208;4.238;2023-02-15T12:46:19;14.23;;;11.95;;
14526;SDS011;7350;51.208;4.238;2023-02-15T12:48:50;14.70;;;13.13;;
14526;SDS011;7350;51.208;4.238;2023-02-15T12:51:41;13.05;;;11.63;;
14526;SDS011;7350;51.208;4.238;2023-02-15T12:54:16;14.35;;;12.85;;
14526;SDS011;7350;51.208;4.238;2023-02-15T12:56:55;13.32;;;11.88;;
14526;SDS011;7350;51.208;4.238;2023-02-15T12:59:23;13.10;;;11.27;;
14526;SDS011;7350;51.208;4.238;2023-02-15T13:01:51;13.15;;;11.80;;
14526;SDS011;7350;51.208;4.238;2023-02-15T13:04:22;14.60;;;10.77;;
14526;SDS011;7350;51.208;4.238;2023-02-15T13:06:52;11.90;;;10.70;;
14526;SDS011;7350;51.208;4.238;2023-02-15T13:09:24;12.55;;;10.50;;
14526;SDS011;7350;51.208;4.238;2023-02-15T13:12:08;11.32;;;10.13;;
14526;SDS011;7350;51.208;4.238;2023-02-15T13:14:42;12.27;;;11.05;;
14526;SDS011;7350;51.208;4.238;2023-02-15T13:17:10;14.00;;;10.40;;
14526;SDS011;7350;51.208;4.238;2023-02-15T13:19:42;11.77;;;10.57;;
14526;SDS011;7350;51.208;4.238;2023-02-15T13:22:13;13.30;;;11.38;;
14526;SDS011;7350;51.208;4.238;2023-02-15T13:24:42;11.13;;;9.88;;
14526;SDS011;7350;51.208;4.238;2023-02-15T13:27:12;11.23;;;10.13;;
14526;SDS011;7350;51.208;4.238;2023-02-15T13:29:43;11.55;;;10.38;;
14526;SDS011;7350;51.208;4.238;2023-02-15T13:32:12;12.00;;;10.73;;
14526;SDS011;7350;51.208;4.238;2023-02-15T13:34:50;11.30;;;10.20;;
14526;SDS011;7350;51.208;4.238;2023-02-15T13:37:21;11.75;;;10.55;;
14526;SDS011;7350;51.208;4.238;2023-02-15T13:40:08;11.55;;;10.45;;
14526;SDS011;7350;51.208;4.238;2023-02-15T13:42:40;12.13;;;10.43;;
14526;SDS011;7350;51.208;4.238;2023-02-15T13:45:19;11.00;;;9.95;;
14526;SDS011;7350;51.208;4.238;2023-02-15T13:47:59;11.20;;;10.07;;
14526;SDS011;7350;51.208;4.238;2023-02-15T13:50:42;11.35;;;10.15;;
14526;SDS011;7350;51.208;4.238;2023-02-15T13:53:22;11.90;;;10.70;;
14526;SDS011;7350;51.208;4.238;2023-02-15T13:56:04;11.05;;;9.88;;
14526;SDS011;7350;51.208;4.238;2023-02-15T13:58:43;9.70;;;8.80;;
14526;SDS011;7350;51.208;4.238;2023-02-15T14:01:36;10.50;;;9.50;;
14526;SDS011;7350;51.208;4.238;2023-02-15T14:04:23;10.70;;;9.70;;
14526;SDS011;7350;51.208;4.238;2023-02-15T14:07:17;12.15;;;10.43;;
14526;SDS011;7350;51.208;4.238;2023-02-15T14:09:56;11.68;;;9.73;;
14526;SDS011;7350;51.208;4.238;2023-02-15T14:12:48;10.68;;;9.68;;
14526;SDS011;7350;51.208;4.238;2023-02-15T14:15:33;11.40;;;10.30;;
14526;SDS011;7350;51.208;4.238;2023-02-15T14:18:09;11.50;;;10.40;;
14526;SDS011;7350;51.208;4.238;2023-02-15T14:20:51;10.45;;;9.45;;
14526;SDS011;7350;51.208;4.238;2023-02-15T14:23:30;10.82;;;9.25;;
14526;SDS011;7350;51.208;4.238;2023-02-15T14:26:09;10.32;;;9.32;;
14526;SDS011;7350;51.208;4.238;2023-02-15T14:28:43;10.75;;;9.65;;
14526;SDS011;7350;51.208;4.238;2023-02-15T14:31:15;11.38;;;10.27;;
14526;SDS011;7350;51.208;4.238;2023-02-15T14:33:52;11.02;;;9.93;;
14526;SDS011;7350;51.208;4.238;2023-02-15T14:36:22;11.93;;;10.82;;
14526;SDS011;7350;51.208;4.238;2023-02-15T14:38:54;11.13;;;9.93;;
14526;SDS011;7350;51.208;4.238;2023-02-15T14:41:29;11.32;;;10.27;;
14526;SDS011;7350;51.208;4.238;2023-02-15T14:44:05;11.93;;;10.75;;
14526;SDS011;7350;51.208;4.238;2023-02-15T14:46:42;11.48;;;10.27;;
14526;SDS011;7350;51.208;4.238;2023-02-15T14:49:15;11.50;;;10.38;;
14526;SDS011;7350;51.208;4.238;2023-02-15T14:51:56;11.90;;;10.73;;
14526;SDS011;7350;51.208;4.238;2023-02-15T14:57:25;11.63;;;10.43;;
14526;SDS011;7350;51.208;4.238;2023-02-15T15:02:57;11.43;;;10.32;;
14526;SDS011;7350;51.208;4.238;2023-02-15T15:05:28;11.35;;;10.30;;
14526;SDS011;7350;51.208;4.238;2023-02-15T15:07:59;11.70;;;10.57;;
14526;SDS011;7350;51.208;4.238;2023-02-15T15:10:37;11.48;;;10.38;;
14526;SDS011;7350;51.208;4.238;2023-02-15T15:22:32;11.10;;;10.10;;
14526;SDS011;7350;51.208;4.238;2023-02-15T15:25:01;11.20;;;10.20;;
14526;SDS011;7350;51.208;4.238;2023-02-15T15:27:50;11.10;;;10.00;;
14526;SDS011;7350;51.208;4.238;2023-02-15T15:36:37;11.60;;;10.50;;